createdAt,value
2023-10-23T00:00:33.824Z,101419.81
2023-10-23T00:03:02.959Z,101410.50
2023-10-23T00:05:32.202Z,101414.41
2023-10-23T00:08:01.180Z,101421.75
2023-10-23T00:10:30.265Z,101418.44
2023-10-23T00:12:59.325Z,101425.28
2023-10-23T00:15:28.686Z,101423.69
2023-10-23T00:17:57.615Z,101435.06
2023-10-23T00:20:26.554Z,101430.69
2023-10-23T00:22:55.690Z,101421.47
2023-10-23T00:25:24.749Z,101412.00
2023-10-23T00:27:54.010Z,101413.31
2023-10-23T00:30:23.231Z,101413.97
2023-10-23T00:32:52.540Z,101413.66
2023-10-23T00:35:21.447Z,101415.25
2023-10-23T00:37:50.554Z,101429.19
2023-10-23T00:40:19.629Z,101425.69
2023-10-23T00:42:48.843Z,101422.00
2023-10-23T00:45:17.840Z,101429.28
2023-10-23T00:47:47.706Z,101422.94
2023-10-23T00:50:16.757Z,101429.25
2023-10-23T00:52:45.624Z,101429.13
2023-10-23T00:55:15.627Z,101432.81
2023-10-23T00:57:44.443Z,101424.22
2023-10-23T01:00:14.427Z,101428.66
2023-10-23T01:02:43.941Z,101421.22
2023-10-23T01:05:13.134Z,101423.56
2023-10-23T01:07:42.190Z,101426.75
2023-10-23T01:10:11.285Z,101425.06
2023-10-23T01:12:42.388Z,101422.50
2023-10-23T01:15:11.524Z,101427.41
2023-10-23T01:17:40.727Z,101426.28
2023-10-23T01:20:11.422Z,101425.16
2023-10-23T01:22:40.523Z,101418.84
2023-10-23T01:25:15.416Z,101418.31
2023-10-23T01:27:44.745Z,101418.50
2023-10-23T01:30:13.739Z,101427.13
2023-10-23T01:32:43.141Z,101430.41
2023-10-23T01:35:12.382Z,101428.22
2023-10-23T01:37:45.786Z,101430.69
2023-10-23T01:40:15.044Z,101430.06
2023-10-23T01:42:44.807Z,101436.19
2023-10-23T01:45:14.513Z,101438.56
2023-10-23T01:47:43.366Z,101439.22
2023-10-23T01:50:12.493Z,101441.78
2023-10-23T01:52:42.856Z,101447.41
2023-10-23T01:55:12.416Z,101449.84
2023-10-23T01:57:41.665Z,101457.03
2023-10-23T02:00:15.117Z,101447.91
2023-10-23T02:02:43.999Z,101457.75
2023-10-23T02:05:12.971Z,101452.38
2023-10-23T02:07:42.192Z,101442.84
2023-10-23T02:10:11.332Z,101455.78
2023-10-23T02:12:40.778Z,101463.19
2023-10-23T02:15:11.978Z,101464.56
2023-10-23T02:17:41.138Z,101472.94
2023-10-23T02:20:10.645Z,101477.78
2023-10-23T02:22:39.698Z,101481.28
2023-10-23T02:25:09.198Z,101473.47
2023-10-23T02:27:38.061Z,101480.97
2023-10-23T02:30:08.627Z,101471.31
2023-10-23T02:32:37.950Z,101478.50
2023-10-23T02:35:07.046Z,101471.94
2023-10-23T02:37:35.965Z,101473.13
2023-10-23T02:40:05.395Z,101480.53
2023-10-23T02:42:34.313Z,101479.53
2023-10-23T02:45:03.660Z,101476.25
2023-10-23T02:47:32.611Z,101475.81
2023-10-23T02:50:01.815Z,101476.34
2023-10-23T02:52:30.779Z,101481.78
2023-10-23T02:54:59.893Z,101482.88
2023-10-23T02:57:28.800Z,101477.06
2023-10-23T02:59:58.039Z,101492.75
2023-10-23T03:02:27.158Z,101491.53
2023-10-23T03:04:56.341Z,101495.47
2023-10-23T03:07:25.410Z,101488.91
2023-10-23T03:09:54.699Z,101493.47
2023-10-23T03:12:23.594Z,101497.94
2023-10-23T03:14:52.642Z,101505.31
2023-10-23T03:17:22.355Z,101512.91
2023-10-23T03:19:51.443Z,101504.44
2023-10-23T03:22:20.948Z,101511.44
2023-10-23T03:24:49.825Z,101503.56
2023-10-23T03:27:18.764Z,101512.06
2023-10-23T03:29:47.661Z,101509.88
2023-10-23T03:32:16.846Z,101513.25
2023-10-23T03:34:46.343Z,101502.56
2023-10-23T03:37:15.809Z,101491.25
2023-10-23T03:39:45.609Z,101494.34
2023-10-23T03:42:15.010Z,101497.81
2023-10-23T03:44:44.070Z,101496.81
2023-10-23T03:47:13.388Z,101497.63
2023-10-23T03:49:42.309Z,101504.13
2023-10-23T03:52:11.433Z,101500.75
2023-10-23T03:54:40.519Z,101511.28
2023-10-23T03:57:09.653Z,101505.28
2023-10-23T03:59:43.023Z,101506.97
2023-10-23T04:02:11.944Z,101501.41
2023-10-23T04:04:41.124Z,101502.16
2023-10-23T04:07:10.166Z,101515.38
2023-10-23T04:09:39.432Z,101519.78
2023-10-23T04:12:08.945Z,101518.69
2023-10-23T04:14:37.846Z,101515.75
2023-10-23T04:17:06.912Z,101512.75
2023-10-23T04:19:36.284Z,101516.81
2023-10-23T04:22:05.608Z,101520.72
2023-10-23T04:24:34.822Z,101516.88
2023-10-23T04:27:04.100Z,101505.72
2023-10-23T04:29:32.957Z,101514.41
2023-10-23T04:32:02.066Z,101508.03
2023-10-23T04:34:31.068Z,101507.22
2023-10-23T04:37:00.191Z,101515.00
2023-10-23T04:39:29.376Z,101515.19
2023-10-23T04:41:58.352Z,101509.28
2023-10-23T04:44:27.479Z,101508.44
2023-10-23T04:46:56.658Z,101515.91
2023-10-23T04:49:25.591Z,101512.94
2023-10-23T04:51:55.137Z,101515.69
2023-10-23T04:54:24.300Z,101509.56
2023-10-23T04:56:53.548Z,101513.72
2023-10-23T04:59:22.641Z,101498.84
2023-10-23T05:01:51.741Z,101513.00
2023-10-23T05:04:20.932Z,101505.09
2023-10-23T05:06:49.938Z,101511.16
2023-10-23T05:09:18.946Z,101512.03
2023-10-23T05:11:48.001Z,101511.41
2023-10-23T05:14:16.904Z,101509.94
2023-10-23T05:16:46.585Z,101502.50
2023-10-23T05:19:15.456Z,101506.03
2023-10-23T05:21:44.554Z,101510.19
2023-10-23T05:24:14.293Z,101507.19
2023-10-23T05:26:43.520Z,101501.06
2023-10-23T05:29:12.688Z,101501.50
2023-10-23T05:31:41.769Z,101507.19
2023-10-23T05:34:10.730Z,101516.16
2023-10-23T05:36:39.835Z,101516.88
2023-10-23T05:39:08.941Z,101508.28
2023-10-23T05:41:38.003Z,101507.72
2023-10-23T05:44:07.318Z,101519.47
2023-10-23T05:46:36.531Z,101520.66
2023-10-23T05:49:05.547Z,101527.31
2023-10-23T05:51:34.744Z,101527.81
2023-10-23T05:54:04.282Z,101530.13
2023-10-23T05:56:34.100Z,101535.91
2023-10-23T05:59:03.465Z,101533.16
2023-10-23T06:01:32.722Z,101529.66
2023-10-23T06:04:01.990Z,101527.50
2023-10-23T06:06:31.719Z,101530.59
2023-10-23T06:09:00.996Z,101530.81
2023-10-23T06:11:29.798Z,101527.34
2023-10-23T06:13:58.966Z,101527.22
2023-10-23T06:16:28.157Z,101532.34
2023-10-23T06:18:57.130Z,101533.91
2023-10-23T06:21:26.190Z,101533.81
2023-10-23T06:23:55.286Z,101538.16
2023-10-23T06:26:24.401Z,101534.66
2023-10-23T06:28:53.491Z,101534.03
2023-10-23T06:31:22.854Z,101539.19
2023-10-23T06:33:53.798Z,101533.34
2023-10-23T06:36:23.046Z,101534.59
2023-10-23T06:38:52.148Z,101534.56
2023-10-23T06:41:21.234Z,101538.78
2023-10-23T06:43:50.287Z,101539.03
2023-10-23T06:46:19.445Z,101537.44
2023-10-23T06:48:48.428Z,101541.75
2023-10-23T06:51:17.717Z,101547.75
2023-10-23T06:53:46.643Z,101543.66
2023-10-23T06:56:15.517Z,101545.63
2023-10-23T06:58:44.692Z,101546.66
2023-10-23T07:01:14.542Z,101548.63
2023-10-23T07:03:43.941Z,101545.47
2023-10-23T07:06:13.099Z,101544.94
2023-10-23T07:08:42.052Z,101544.59
2023-10-23T07:11:19.424Z,101542.63
2023-10-23T07:13:48.317Z,101546.19
2023-10-23T07:16:17.655Z,101546.22
2023-10-23T07:18:46.956Z,101540.78
2023-10-23T07:21:16.490Z,101541.47
2023-10-23T07:23:46.085Z,101532.47
2023-10-23T07:26:16.386Z,101531.97
2023-10-23T07:28:45.894Z,101538.28
2023-10-23T07:31:15.007Z,101537.75
2023-10-23T07:33:44.530Z,101529.63
2023-10-23T07:36:14.849Z,101519.72
2023-10-23T07:38:46.106Z,101520.16
2023-10-23T07:41:15.393Z,101528.81
2023-10-23T07:43:45.160Z,101529.44
2023-10-23T07:46:17.465Z,101537.44
2023-10-23T07:48:47.566Z,101543.16
2023-10-23T07:51:16.528Z,101551.06
2023-10-23T07:53:45.648Z,101542.75
2023-10-23T07:56:15.089Z,101536.94
2023-10-23T07:58:44.648Z,101543.00
2023-10-23T08:01:14.762Z,101545.25
2023-10-23T08:03:44.001Z,101541.72
2023-10-23T08:06:13.898Z,101548.38
2023-10-23T08:08:44.584Z,101539.44
2023-10-23T08:11:16.949Z,101545.75
2023-10-23T08:13:45.961Z,101546.16
2023-10-23T08:16:15.515Z,101539.44
2023-10-23T08:18:44.876Z,101547.28
2023-10-23T08:21:16.197Z,101541.06
2023-10-23T08:23:57.926Z,101544.25
2023-10-23T08:26:26.971Z,101550.81
2023-10-23T08:31:38.077Z,101553.06
2023-10-23T08:34:10.170Z,101544.03
2023-10-23T08:36:39.818Z,101541.66
2023-10-23T08:39:09.394Z,101543.81
2023-10-23T08:41:42.298Z,101555.63
2023-10-23T08:44:12.137Z,101551.06
2023-10-23T08:46:42.203Z,101551.56
2023-10-23T08:49:11.517Z,101560.78
2023-10-23T08:51:42.835Z,101550.50
2023-10-23T08:54:19.575Z,101561.13
2023-10-23T08:57:00.327Z,101564.19
2023-10-23T08:59:29.509Z,101560.84
2023-10-23T09:02:01.419Z,101559.63
2023-10-23T09:04:31.100Z,101563.88
2023-10-23T09:07:01.699Z,101559.69
2023-10-23T09:09:32.210Z,101554.53
2023-10-23T09:12:04.975Z,101553.63
2023-10-23T09:14:33.982Z,101554.41
2023-10-23T09:17:05.296Z,101538.75
2023-10-23T09:19:39.623Z,101538.88
2023-10-23T09:22:09.684Z,101542.59
2023-10-23T09:24:38.958Z,101542.53
2023-10-23T09:27:08.204Z,101533.72
2023-10-23T09:29:37.066Z,101542.09
2023-10-23T09:32:07.174Z,101540.41
2023-10-23T09:34:42.397Z,101541.53
2023-10-23T09:37:11.613Z,101537.63
2023-10-23T09:39:41.464Z,101530.41
2023-10-23T09:42:11.343Z,101527.56
2023-10-23T09:44:42.694Z,101539.19
2023-10-23T09:47:13.356Z,101540.19
2023-10-23T09:49:43.711Z,101531.63
2023-10-23T09:52:15.490Z,101529.44
2023-10-23T09:54:48.511Z,101528.97
2023-10-23T09:57:26.879Z,101526.66
2023-10-23T10:00:01.300Z,101534.44
2023-10-23T10:02:35.346Z,101533.63
2023-10-23T10:05:07.696Z,101534.75
2023-10-23T10:08:04.292Z,101541.22
2023-10-23T10:10:36.520Z,101540.66
2023-10-23T10:13:05.746Z,101535.22
2023-10-23T10:15:35.137Z,101532.81
2023-10-23T10:18:05.110Z,101544.03
2023-10-23T10:20:34.678Z,101534.03
2023-10-23T10:23:13.234Z,101534.56
2023-10-23T10:25:46.737Z,101545.81
2023-10-23T10:28:16.240Z,101538.16
2023-10-23T10:30:51.023Z,101532.13
2023-10-23T10:34:25.323Z,101530.25
2023-10-23T10:36:47.507Z,101531.09
2023-10-23T10:39:18.431Z,101532.22
2023-10-23T10:41:47.508Z,101527.81
2023-10-23T10:44:18.201Z,101518.13
2023-10-23T10:46:53.615Z,101516.13
2023-10-23T10:49:24.620Z,101525.69
2023-10-23T10:51:53.856Z,101526.06
2023-10-23T10:54:22.836Z,101524.38
2023-10-23T10:56:53.457Z,101525.09
2023-10-23T10:59:27.787Z,101519.00
2023-10-23T11:01:57.579Z,101524.56
2023-10-23T11:04:26.664Z,101523.84
2023-10-23T11:06:55.785Z,101516.97
2023-10-23T11:09:24.650Z,101504.16
2023-10-23T11:11:53.785Z,101505.50
2023-10-23T11:14:25.474Z,101506.13
2023-10-23T11:16:54.576Z,101499.22
2023-10-23T11:19:23.570Z,101498.97
2023-10-23T11:22:07.310Z,101495.34
2023-10-23T11:24:36.356Z,101499.41
2023-10-23T11:27:06.429Z,101504.50
2023-10-23T11:29:44.826Z,101500.72
2023-10-23T11:32:15.041Z,101490.41
2023-10-23T11:34:46.098Z,101496.00
2023-10-23T11:37:15.229Z,101482.19
2023-10-23T11:39:44.506Z,101487.16
2023-10-23T11:42:13.470Z,101490.09
2023-10-23T11:44:43.230Z,101480.91
2023-10-23T11:47:12.549Z,101475.59
2023-10-23T11:49:50.221Z,101471.75
2023-10-23T11:52:19.184Z,101473.44
2023-10-23T11:54:48.558Z,101466.00
2023-10-23T11:57:17.762Z,101463.44
2023-10-23T11:59:48.554Z,101458.09
2023-10-23T12:02:18.142Z,101449.50
2023-10-23T12:04:47.407Z,101443.22
2023-10-23T12:07:16.364Z,101433.31
2023-10-23T12:09:46.286Z,101431.13
2023-10-23T12:12:15.481Z,101424.47
2023-10-23T12:14:44.850Z,101422.72
2023-10-23T12:17:14.283Z,101423.41
2023-10-23T12:19:43.580Z,101418.19
2023-10-23T12:22:12.607Z,101416.44
2023-10-23T12:24:41.573Z,101412.22
2023-10-23T12:27:10.680Z,101412.28
2023-10-23T12:29:40.137Z,101409.63
2023-10-23T12:32:09.178Z,101402.91
2023-10-23T12:34:38.101Z,101403.91
2023-10-23T12:37:07.034Z,101399.47
2023-10-23T12:39:36.722Z,101388.31
2023-10-23T12:42:05.680Z,101389.25
2023-10-23T12:44:34.835Z,101390.22
2023-10-23T12:47:04.220Z,101395.38
2023-10-23T12:49:33.139Z,101383.19
2023-10-23T12:52:02.379Z,101384.13
2023-10-23T12:54:31.789Z,101380.81
2023-10-23T12:57:01.182Z,101375.78
2023-10-23T12:59:30.351Z,101360.22
2023-10-23T13:01:59.939Z,101359.25
2023-10-23T13:04:29.325Z,101355.00
2023-10-23T13:06:58.620Z,101350.66
2023-10-23T13:09:27.806Z,101353.28
2023-10-23T13:11:57.172Z,101346.34
2023-10-23T13:14:26.360Z,101355.00
2023-10-23T13:16:57.101Z,101343.84
2023-10-23T13:19:26.425Z,101339.53
2023-10-23T13:21:55.421Z,101336.13
2023-10-23T13:24:24.426Z,101333.53
2023-10-23T13:26:53.872Z,101322.31
2023-10-23T13:29:22.893Z,101323.16
2023-10-23T13:31:53.388Z,101322.31
2023-10-23T13:34:23.247Z,101323.09
2023-10-23T13:36:52.321Z,101322.28
2023-10-23T13:39:21.417Z,101316.25
2023-10-23T13:41:50.543Z,101312.75
2023-10-23T13:44:19.825Z,101305.84
2023-10-23T13:46:49.126Z,101301.56
2023-10-23T13:49:18.197Z,101300.69
2023-10-23T13:51:47.261Z,101296.38
2023-10-23T13:54:16.418Z,101289.47
2023-10-23T13:56:46.964Z,101286.03
2023-10-23T13:59:16.065Z,101287.75
2023-10-23T14:01:45.260Z,101275.63
2023-10-23T14:04:14.468Z,101270.44
2023-10-23T14:06:43.399Z,101266.16
2023-10-23T14:09:41.124Z,101259.22
2023-10-23T14:12:02.503Z,101248.84
2023-10-23T14:14:32.027Z,101246.25
2023-10-23T14:17:01.973Z,101250.59
2023-10-23T14:19:45.785Z,101237.63
2023-10-23T14:22:17.960Z,101244.53
2023-10-23T14:24:49.316Z,101238.50
2023-10-23T14:27:18.684Z,101239.34
2023-10-23T14:29:47.958Z,101231.63
2023-10-23T14:32:17.302Z,101234.13
2023-10-23T14:34:46.219Z,101226.41
2023-10-23T14:37:15.468Z,101225.47
2023-10-23T14:39:44.484Z,101225.53
2023-10-23T14:42:13.648Z,101223.81
2023-10-23T14:44:42.761Z,101229.00
2023-10-23T14:47:12.044Z,101226.38
2023-10-23T14:49:41.231Z,101228.16
2023-10-23T14:52:10.917Z,101231.59
2023-10-23T14:54:40.443Z,101229.03
2023-10-23T14:57:09.467Z,101232.44
2023-10-23T14:59:39.000Z,101230.75
2023-10-23T15:02:08.578Z,101230.72
2023-10-23T15:04:37.862Z,101235.06
2023-10-23T15:07:07.603Z,101221.94
2023-10-23T15:09:37.348Z,101225.16
2023-10-23T15:12:06.969Z,101225.41
2023-10-23T15:14:35.812Z,101219.31
2023-10-23T15:17:05.189Z,101209.84
2023-10-23T15:19:34.412Z,101210.84
2023-10-23T15:22:03.368Z,101202.22
2023-10-23T15:24:32.562Z,101202.97
2023-10-23T15:27:01.705Z,101199.66
2023-10-23T15:29:30.942Z,101196.19
2023-10-23T15:32:00.340Z,101196.19
2023-10-23T15:34:29.282Z,101189.16
2023-10-23T15:36:58.535Z,101190.91
2023-10-23T15:39:27.866Z,101186.44
2023-10-23T15:41:56.936Z,101180.59
2023-10-23T15:44:32.281Z,101179.59
2023-10-23T15:47:01.431Z,101175.03
2023-10-23T15:49:30.696Z,101169.84
2023-10-23T15:51:59.777Z,101174.03
2023-10-23T15:54:29.524Z,101163.53
2023-10-23T15:56:58.841Z,101162.09
2023-10-23T15:59:28.238Z,101163.59
2023-10-23T16:01:57.934Z,101157.53
2023-10-23T16:04:27.190Z,101149.19
2023-10-23T16:06:56.074Z,101156.06
2023-10-23T16:09:27.615Z,101146.56
2023-10-23T16:11:57.389Z,101138.09
2023-10-23T16:17:12.466Z,101150.91
2023-10-23T16:19:41.436Z,101137.91
2023-10-23T16:22:11.040Z,101143.06
2023-10-23T16:24:40.689Z,101139.47
2023-10-23T16:27:09.990Z,101142.88
2023-10-23T16:29:40.839Z,101141.25
2023-10-23T16:32:10.732Z,101136.19
2023-10-23T16:34:40.134Z,101132.00
2023-10-23T16:37:09.407Z,101127.56
2023-10-23T16:39:38.397Z,101121.66
2023-10-23T16:42:07.801Z,101123.28
2023-10-23T16:44:52.338Z,101120.41
2023-10-23T16:47:23.661Z,101113.06
2023-10-23T16:49:55.692Z,101126.78
2023-10-23T16:52:24.622Z,101112.94
2023-10-23T16:54:53.887Z,101119.09
2023-10-23T16:57:23.018Z,101113.09
2023-10-23T16:59:51.883Z,101112.91
2023-10-23T17:02:20.897Z,101112.25
2023-10-23T17:04:49.806Z,101112.09
2023-10-23T17:07:19.116Z,101105.31
2023-10-23T17:09:48.404Z,101106.16
2023-10-23T17:12:17.740Z,101114.72
2023-10-23T17:14:47.082Z,101097.50
2023-10-23T17:17:16.609Z,101096.53
2023-10-23T17:19:49.619Z,101091.31
2023-10-23T17:22:18.745Z,101091.97
2023-10-23T17:24:48.534Z,101088.66
2023-10-23T17:27:17.877Z,101078.56
2023-10-23T17:29:46.809Z,101088.69
2023-10-23T17:32:15.950Z,101083.47
2023-10-23T17:34:44.956Z,101081.44
2023-10-23T17:37:14.810Z,101066.84
2023-10-23T17:39:43.969Z,101057.09
2023-10-23T17:42:13.163Z,101046.88
2023-10-23T17:44:42.305Z,101048.53
2023-10-23T17:47:11.472Z,101030.72
2023-10-23T17:49:40.972Z,101026.72
2023-10-23T17:52:10.639Z,101007.91
2023-10-23T17:54:41.803Z,101006.06
2023-10-23T17:57:10.980Z,100991.31
2023-10-23T17:59:40.466Z,100990.53
2023-10-23T18:02:09.635Z,100984.56
2023-10-23T18:04:38.550Z,100988.00
2023-10-23T18:07:07.698Z,100977.50
2023-10-23T18:09:37.196Z,100977.53
2023-10-23T18:12:06.659Z,100969.56
2023-10-23T18:14:35.775Z,100972.28
2023-10-23T18:17:04.939Z,100966.47
2023-10-23T18:19:34.417Z,100970.59
2023-10-23T18:22:04.224Z,100977.91
2023-10-23T18:24:33.113Z,100967.97
2023-10-23T18:27:02.831Z,100974.44
2023-10-23T18:29:34.046Z,100967.38
2023-10-23T18:32:03.389Z,100960.03
2023-10-23T18:34:32.526Z,100953.59
2023-10-23T18:37:01.478Z,100956.13
2023-10-23T18:39:30.808Z,100942.88
2023-10-23T18:42:00.405Z,100942.09
2023-10-23T18:44:29.565Z,100937.16
2023-10-23T18:46:59.356Z,100936.91
2023-10-23T18:49:29.900Z,100948.97
2023-10-23T18:51:59.155Z,100952.06
2023-10-23T18:54:28.151Z,100968.84
2023-10-23T18:57:00.686Z,100966.31
2023-10-23T18:59:29.796Z,100969.03
2023-10-23T19:01:58.935Z,100983.44
2023-10-23T19:04:27.958Z,100989.38
2023-10-23T19:06:56.949Z,100974.81
2023-10-23T19:09:26.240Z,100983.38
2023-10-23T19:11:55.398Z,100982.47
2023-10-23T19:14:24.592Z,100986.00
2023-10-23T19:16:53.865Z,100986.22
2023-10-23T19:19:22.897Z,100976.91
2023-10-23T19:21:51.972Z,100981.13
2023-10-23T19:24:21.198Z,100966.84
2023-10-23T19:26:50.037Z,100971.84
2023-10-23T19:29:19.171Z,100976.28
2023-10-23T19:31:48.575Z,100966.56
2023-10-23T19:34:18.062Z,100971.00
2023-10-23T19:36:47.548Z,100967.03
2023-10-23T19:39:16.692Z,100964.97
2023-10-23T19:41:51.570Z,100953.03
2023-10-23T19:44:21.109Z,100961.38
2023-10-23T19:46:50.711Z,100947.78
2023-10-23T19:49:20.136Z,100953.59
2023-10-23T19:51:49.335Z,100947.53
2023-10-23T19:54:38.323Z,100947.50
2023-10-23T19:57:11.120Z,100937.06
2023-10-23T19:59:43.797Z,100944.81
2023-10-23T20:02:13.182Z,100941.50
2023-10-23T20:04:42.264Z,100924.66
2023-10-23T20:07:11.419Z,100922.16
2023-10-23T20:09:40.568Z,100928.09
2023-10-23T20:12:10.047Z,100918.50
2023-10-23T20:14:38.985Z,100921.41
2023-10-23T20:17:08.243Z,100906.09
2023-10-23T20:19:37.218Z,100913.47
2023-10-23T20:22:06.509Z,100911.78
2023-10-23T20:24:35.754Z,100909.28
2023-10-23T20:27:05.204Z,100906.50
2023-10-23T20:29:34.098Z,100905.78
2023-10-23T20:32:04.554Z,100906.66
2023-10-23T20:34:35.699Z,100906.31
2023-10-23T20:37:05.066Z,100891.19
2023-10-23T20:39:34.164Z,100892.69
2023-10-23T20:42:03.388Z,100884.03
2023-10-23T20:44:35.218Z,100881.75
2023-10-23T20:47:04.487Z,100881.59
2023-10-23T20:49:46.422Z,100875.63
2023-10-23T20:52:15.265Z,100871.19
2023-10-23T20:54:44.193Z,100862.81
2023-10-23T20:57:13.301Z,100859.63
2023-10-23T20:59:42.431Z,100865.44
2023-10-23T21:02:11.657Z,100851.53
2023-10-23T21:04:40.816Z,100849.59
2023-10-23T21:07:11.141Z,100847.41
2023-10-23T21:09:40.288Z,100837.22
2023-10-23T21:12:09.615Z,100825.03
2023-10-23T21:14:49.279Z,100817.47
2023-10-23T21:17:19.982Z,100797.03
2023-10-23T21:19:49.004Z,100778.13
2023-10-23T21:22:18.206Z,100772.97
2023-10-23T21:24:47.258Z,100771.19
2023-10-23T21:27:16.701Z,100765.22
2023-10-23T21:29:46.229Z,100764.34
2023-10-23T21:32:15.114Z,100748.81
2023-10-23T21:34:44.312Z,100747.94
2023-10-23T21:37:13.411Z,100737.63
2023-10-23T21:39:42.619Z,100730.78
2023-10-23T21:42:11.733Z,100720.38
2023-10-23T21:44:41.038Z,100717.88
2023-10-23T21:47:10.080Z,100712.56
2023-10-23T21:49:39.140Z,100704.06
2023-10-23T21:52:08.730Z,100692.03
2023-10-23T21:54:37.963Z,100684.31
2023-10-23T21:57:23.050Z,100686.06
2023-10-23T21:59:53.000Z,100680.88
2023-10-23T22:02:23.015Z,100680.81
2023-10-23T22:04:52.176Z,100689.50
2023-10-23T22:07:21.236Z,100680.03
2023-10-23T22:09:50.431Z,100675.66
2023-10-23T22:12:19.522Z,100667.84
2023-10-23T22:14:48.582Z,100660.19
2023-10-23T22:17:17.481Z,100643.88
2023-10-23T22:19:46.429Z,100644.66
2023-10-23T22:22:15.781Z,100629.28
2023-10-23T22:24:46.149Z,100638.69
2023-10-23T22:27:15.180Z,100636.06
2023-10-23T22:29:44.228Z,100623.91
2023-10-23T22:32:13.293Z,100628.25
2023-10-23T22:34:42.456Z,100622.25
2023-10-23T22:37:58.663Z,100611.94
2023-10-23T22:40:00.750Z,100617.97
2023-10-23T22:42:29.579Z,100617.91
2023-10-23T22:44:58.758Z,100608.44
2023-10-23T22:47:27.971Z,100597.41
2023-10-23T22:49:57.150Z,100582.81
2023-10-23T22:52:26.402Z,100586.16
2023-10-23T22:54:56.135Z,100578.44
2023-10-23T22:57:25.265Z,100570.66
2023-10-23T22:59:54.471Z,100557.84
2023-10-23T23:02:23.724Z,100574.13
2023-10-23T23:04:53.080Z,100564.72
2023-10-23T23:07:24.150Z,100551.81
2023-10-23T23:09:54.581Z,100546.69
2023-10-23T23:12:24.375Z,100548.34
2023-10-23T23:14:53.753Z,100533.81
2023-10-23T23:17:27.871Z,100524.38
2023-10-23T23:20:01.341Z,100527.81
2023-10-23T23:22:30.569Z,100516.63
2023-10-23T23:24:59.429Z,100512.31
2023-10-23T23:27:28.570Z,100517.50
2023-10-23T23:29:57.680Z,100508.88
2023-10-23T23:32:26.922Z,100516.53
2023-10-23T23:34:55.863Z,100510.53
2023-10-23T23:37:25.027Z,100509.69
2023-10-23T23:39:53.888Z,100505.41
2023-10-23T23:42:23.005Z,100511.41
2023-10-23T23:44:51.958Z,100506.25
2023-10-23T23:47:21.139Z,100499.38
2023-10-23T23:49:50.208Z,100490.78
2023-10-23T23:52:19.719Z,100492.50
2023-10-23T23:54:48.660Z,100469.38
2023-10-23T23:57:17.893Z,100472.78
2023-10-23T23:59:47.066Z,100478.75
